X  CloseMetar Aviation Weather Data     EBBR Brussels

Temperature

23°C Temperature

7°C Dewpoint

36% Humidity



Wind

13 KM/H

 8 MPH

 4 M/S

 7 KTS



30°
North North
East
Current Conditions

Clear Clear
Pressure 1034.92 (hPa) - 30.56 (in)
Visibility 6.2 (mi) - 10 (km)
Airport
Airport-code EBBR

Location Brussels 14 (km)

Metar:
EBBR 261250Z 03007KT 010V080 CAVOK 23/07 Q1035 NOSIG

Time: 26-05-2020 14:50